createdAt,value
2023-03-14T00:00:35.764Z,58.39
2023-03-14T00:03:22.831Z,58.55
2023-03-14T00:05:55.936Z,57.45
2023-03-14T00:08:27.213Z,57.37
2023-03-14T00:11:00.706Z,57.70
2023-03-14T00:13:32.786Z,56.30
2023-03-14T00:16:08.132Z,57.20
2023-03-14T00:18:39.855Z,56.38
2023-03-14T00:21:11.915Z,56.90
2023-03-14T00:23:44.146Z,55.70
2023-03-14T00:26:15.815Z,55.48
2023-03-14T00:28:47.115Z,56.12
2023-03-14T00:31:18.228Z,56.10
2023-03-14T00:33:49.568Z,55.93
2023-03-14T00:36:21.546Z,55.14
2023-03-14T00:38:53.294Z,54.90
2023-03-14T00:41:27.445Z,55.31
2023-03-14T00:43:58.691Z,54.93
2023-03-14T00:46:32.014Z,54.95
2023-03-14T00:49:08.652Z,54.56
2023-03-14T00:51:39.881Z,54.91
2023-03-14T00:54:11.124Z,55.15
2023-03-14T00:56:42.038Z,54.88
2023-03-14T00:59:13.525Z,54.81
2023-03-14T01:01:44.898Z,55.16
2023-03-14T01:04:17.576Z,55.14
2023-03-14T01:06:51.461Z,55.05
2023-03-14T01:09:23.310Z,55.07
2023-03-14T01:11:54.003Z,55.21
2023-03-14T01:14:25.291Z,55.18
2023-03-14T01:17:01.794Z,55.08
2023-03-14T01:19:33.807Z,54.98
2023-03-14T01:22:04.497Z,54.97
2023-03-14T01:24:35.625Z,54.92
2023-03-14T01:27:06.884Z,54.85
2023-03-14T01:29:38.717Z,54.64
2023-03-14T01:32:10.132Z,54.52
2023-03-14T01:34:41.604Z,54.71
2023-03-14T01:37:13.319Z,54.40
2023-03-14T01:39:45.669Z,54.38
2023-03-14T01:42:16.773Z,54.24
2023-03-14T01:44:52.010Z,54.24
2023-03-14T01:47:23.524Z,54.11
2023-03-14T01:49:56.445Z,54.17
2023-03-14T01:52:30.260Z,54.08
2023-03-14T01:55:04.704Z,53.93
2023-03-14T01:57:38.891Z,54.20
2023-03-14T02:00:14.596Z,54.12
2023-03-14T02:02:47.007Z,54.53
2023-03-14T02:05:21.747Z,54.68
2023-03-14T02:08:00.256Z,54.86
2023-03-14T02:10:41.282Z,54.95
2023-03-14T02:13:16.783Z,54.95
2023-03-14T02:15:50.759Z,55.11
2023-03-14T02:18:41.819Z,55.16
2023-03-14T02:21:52.056Z,55.29
2023-03-14T02:24:30.793Z,55.32
2023-03-14T02:27:08.576Z,55.46
2023-03-14T02:29:47.903Z,55.56
2023-03-14T02:32:20.554Z,55.64
2023-03-14T02:34:53.696Z,55.74
2023-03-14T02:37:29.949Z,55.81
2023-03-14T02:40:01.274Z,55.91
2023-03-14T02:42:32.474Z,55.96
2023-03-14T02:45:23.634Z,55.97
2023-03-14T02:47:57.630Z,56.06
2023-03-14T02:50:31.936Z,56.08
2023-03-14T02:53:03.558Z,56.22
2023-03-14T02:55:34.920Z,56.32
2023-03-14T02:58:15.216Z,56.40
2023-03-14T03:00:47.173Z,56.49
2023-03-14T03:03:18.780Z,56.63
2023-03-14T03:05:51.742Z,56.59
2023-03-14T03:08:25.044Z,56.63
2023-03-14T03:10:56.789Z,56.69
2023-03-14T03:13:29.261Z,56.65
2023-03-14T03:16:02.774Z,56.59
2023-03-14T03:18:33.804Z,56.54
2023-03-14T03:21:05.010Z,56.39
2023-03-14T03:23:36.155Z,56.35
2023-03-14T03:26:11.367Z,56.32
2023-03-14T03:28:42.904Z,56.29
2023-03-14T03:31:14.709Z,56.26
2023-03-14T03:33:45.791Z,56.26
2023-03-14T03:36:16.553Z,56.15
2023-03-14T03:38:55.828Z,56.30
2023-03-14T03:41:26.562Z,56.33
2023-03-14T03:43:58.183Z,56.33
2023-03-14T03:46:29.026Z,56.31
2023-03-14T03:49:01.243Z,56.34
2023-03-14T03:51:33.025Z,56.26
2023-03-14T03:54:04.424Z,56.27
2023-03-14T03:56:37.450Z,56.28
2023-03-14T03:59:08.861Z,56.24
2023-03-14T04:01:40.151Z,56.35
2023-03-14T04:04:11.825Z,56.83
2023-03-14T04:06:43.322Z,56.87
2023-03-14T04:09:14.779Z,57.03
2023-03-14T04:12:02.529Z,57.49
2023-03-14T04:14:43.414Z,57.64
2023-03-14T04:17:21.817Z,58.25
2023-03-14T04:19:55.110Z,58.45
2023-03-14T04:22:28.834Z,58.92
2023-03-14T04:25:00.030Z,59.19
2023-03-14T04:27:30.766Z,59.28
2023-03-14T04:30:02.657Z,59.40
2023-03-14T04:32:50.972Z,59.76
2023-03-14T04:35:24.085Z,59.88
2023-03-14T04:37:57.954Z,59.97
2023-03-14T04:40:29.749Z,60.22
2023-03-14T04:43:04.871Z,60.47
2023-03-14T04:45:36.508Z,60.60
2023-03-14T04:48:10.010Z,60.93
2023-03-14T04:50:43.367Z,61.20
2023-03-14T04:53:14.682Z,62.28
2023-03-14T04:55:51.161Z,66.50
2023-03-14T04:58:22.522Z,63.30
2023-03-14T05:00:54.516Z,57.10
2023-03-14T05:03:46.096Z,56.44
2023-03-14T05:06:32.039Z,57.60
2023-03-14T05:09:31.741Z,58.51
2023-03-14T05:12:18.848Z,59.95
2023-03-14T05:15:03.567Z,60.24
2023-03-14T05:17:45.531Z,60.11
2023-03-14T05:20:39.896Z,61.56
2023-03-14T05:23:25.260Z,64.01
2023-03-14T05:26:02.058Z,67.59
2023-03-14T05:28:56.720Z,66.44
2023-03-14T05:31:34.987Z,63.09
2023-03-14T05:34:35.077Z,58.79
2023-03-14T05:37:31.932Z,55.09
2023-03-14T05:40:26.822Z,55.33
2023-03-14T05:43:09.433Z,56.89
2023-03-14T05:45:41.415Z,58.20
2023-03-14T05:48:30.561Z,59.60
2023-03-14T05:51:11.341Z,61.07
2023-03-14T05:54:11.071Z,60.58
2023-03-14T05:57:00.510Z,61.30
2023-03-14T05:59:49.411Z,61.51
2023-03-14T06:02:39.974Z,64.48
2023-03-14T06:05:16.761Z,62.47
2023-03-14T06:07:54.423Z,57.19
2023-03-14T06:10:25.381Z,55.36
2023-03-14T06:12:57.159Z,57.07
2023-03-14T06:15:28.373Z,58.87
2023-03-14T06:18:01.781Z,59.49
2023-03-14T06:20:34.258Z,60.04
2023-03-14T06:23:10.102Z,60.16
2023-03-14T06:25:41.062Z,60.26
2023-03-14T06:28:12.376Z,60.49
2023-03-14T06:30:42.987Z,61.06
2023-03-14T06:33:15.189Z,61.65
2023-03-14T06:35:46.364Z,65.38
2023-03-14T06:38:17.738Z,62.51
2023-03-14T06:40:51.028Z,61.00
2023-03-14T06:43:34.064Z,56.83
2023-03-14T06:46:04.886Z,53.56
2023-03-14T06:48:36.961Z,53.79
2023-03-14T06:51:10.963Z,54.03
2023-03-14T06:53:42.445Z,53.80
2023-03-14T06:56:13.902Z,56.36
2023-03-14T06:58:48.273Z,57.57
2023-03-14T07:01:26.111Z,56.08
2023-03-14T07:04:02.248Z,57.38
2023-03-14T07:06:33.221Z,58.16
2023-03-14T07:09:04.673Z,56.54
2023-03-14T07:11:37.367Z,56.34
2023-03-14T07:14:09.618Z,56.61
2023-03-14T07:16:40.872Z,56.04
2023-03-14T07:19:12.217Z,57.76
2023-03-14T07:21:43.426Z,57.65
2023-03-14T07:24:16.381Z,56.62
2023-03-14T07:26:47.216Z,55.70
2023-03-14T07:29:18.531Z,56.73
2023-03-14T07:31:52.899Z,55.91
2023-03-14T07:34:25.148Z,55.87
2023-03-14T07:36:55.859Z,55.17
2023-03-14T07:39:27.140Z,54.29
2023-03-14T07:42:08.832Z,53.06
2023-03-14T07:45:15.143Z,53.55
2023-03-14T07:47:46.086Z,53.87
2023-03-14T07:50:18.528Z,54.08
2023-03-14T07:52:49.607Z,52.48
2023-03-14T07:55:23.501Z,52.44
2023-03-14T07:57:54.263Z,50.94
2023-03-14T08:00:28.224Z,51.72
2023-03-14T08:02:58.805Z,51.35
2023-03-14T08:05:30.058Z,50.78
2023-03-14T08:08:00.814Z,50.09
2023-03-14T08:10:32.274Z,49.35
2023-03-14T08:13:03.208Z,48.52
2023-03-14T08:15:36.219Z,48.24
2023-03-14T08:18:07.906Z,48.58
2023-03-14T08:20:39.463Z,47.71
2023-03-14T08:23:10.673Z,47.49
2023-03-14T08:25:42.139Z,47.19
2023-03-14T08:28:15.227Z,46.96
2023-03-14T08:30:47.788Z,47.01
2023-03-14T08:33:20.911Z,47.37
2023-03-14T08:35:53.686Z,47.68
2023-03-14T08:38:26.362Z,47.80
2023-03-14T08:41:01.061Z,47.68
2023-03-14T08:43:32.062Z,48.38
2023-03-14T08:46:03.843Z,48.23
2023-03-14T08:48:34.887Z,48.26
2023-03-14T08:51:09.572Z,48.40
2023-03-14T08:53:41.022Z,47.27
2023-03-14T08:56:12.725Z,47.36
2023-03-14T08:58:43.375Z,47.15
2023-03-14T09:01:14.778Z,46.29
2023-03-14T09:03:45.769Z,46.18
2023-03-14T09:06:19.254Z,46.12
2023-03-14T09:08:48.541Z,46.03
2023-03-14T09:11:26.068Z,45.65
2023-03-14T09:13:57.104Z,45.59
2023-03-14T09:16:30.214Z,45.61
2023-03-14T09:19:02.659Z,45.76
2023-03-14T09:21:33.705Z,45.99
2023-03-14T09:24:04.940Z,46.19
2023-03-14T09:26:35.914Z,46.38
2023-03-14T09:29:06.925Z,46.01
2023-03-14T09:31:38.206Z,45.96
2023-03-14T09:34:09.936Z,46.15
2023-03-14T09:36:41.334Z,46.17
2023-03-14T09:39:43.431Z,45.89
2023-03-14T09:42:15.407Z,45.87
2023-03-14T09:44:50.847Z,45.88
2023-03-14T09:47:22.956Z,45.84
2023-03-14T09:49:54.971Z,46.05
2023-03-14T09:52:27.042Z,45.51
2023-03-14T09:54:59.596Z,45.41
2023-03-14T09:57:31.164Z,45.48
2023-03-14T10:00:06.420Z,45.91
2023-03-14T10:02:41.132Z,45.68
2023-03-14T10:05:16.880Z,45.32
2023-03-14T10:07:48.329Z,45.13
2023-03-14T10:10:20.971Z,45.03
2023-03-14T10:12:58.331Z,44.98
2023-03-14T10:15:29.850Z,45.42
2023-03-14T10:18:01.812Z,45.00
2023-03-14T10:20:37.342Z,45.11
2023-03-14T10:23:20.772Z,44.44
2023-03-14T10:26:01.866Z,44.40
2023-03-14T10:28:34.884Z,44.50
2023-03-14T10:31:05.939Z,44.79
2023-03-14T10:33:38.614Z,44.33
2023-03-14T10:36:22.084Z,44.30
2023-03-14T10:38:59.185Z,44.40
2023-03-14T10:41:33.884Z,45.05
2023-03-14T10:44:08.317Z,44.97
2023-03-14T10:46:39.436Z,45.08
2023-03-14T10:49:31.421Z,44.95
2023-03-14T10:52:15.299Z,45.44
2023-03-14T10:54:49.049Z,45.52
2023-03-14T10:57:21.934Z,45.83
2023-03-14T10:59:51.097Z,46.33
2023-03-14T11:02:30.361Z,46.63
2023-03-14T11:05:05.974Z,46.97
2023-03-14T11:07:39.512Z,47.18
2023-03-14T11:10:14.060Z,47.25
2023-03-14T11:12:51.081Z,47.43
2023-03-14T11:15:24.671Z,47.52
2023-03-14T11:17:53.779Z,47.85
2023-03-14T11:20:33.413Z,48.15
2023-03-14T11:23:06.655Z,48.52
2023-03-14T11:25:35.794Z,48.62
2023-03-14T11:28:11.997Z,48.87
2023-03-14T11:30:45.668Z,48.97
2023-03-14T11:33:18.264Z,49.19
2023-03-14T11:35:51.641Z,49.29
2023-03-14T11:38:21.034Z,49.54
2023-03-14T11:40:53.693Z,49.81
2023-03-14T11:43:29.820Z,49.74
2023-03-14T11:46:06.425Z,49.83
2023-03-14T11:48:44.409Z,49.97
2023-03-14T11:51:19.707Z,49.87
2023-03-14T11:53:54.101Z,50.02
2023-03-14T11:56:29.519Z,50.11
2023-03-14T11:59:04.181Z,50.43
2023-03-14T12:01:42.756Z,50.74
2023-03-14T12:04:16.646Z,50.93
2023-03-14T12:06:49.636Z,51.16
2023-03-14T12:09:21.502Z,51.18
2023-03-14T13:04:12.576Z,50.06
2023-03-14T13:06:52.413Z,49.92
2023-03-14T13:09:36.695Z,50.21
2023-03-14T13:12:12.248Z,50.46
2023-03-14T13:14:46.688Z,50.73
2023-03-14T13:17:37.958Z,51.00
2023-03-14T13:20:13.924Z,51.57
2023-03-14T13:22:49.570Z,51.98
2023-03-14T13:25:22.447Z,52.37
2023-03-14T13:27:56.618Z,52.57
2023-03-14T13:30:28.934Z,52.64
2023-03-14T13:33:05.743Z,52.90
2023-03-14T13:35:44.480Z,52.99
2023-03-14T13:38:22.605Z,53.30
2023-03-14T13:40:55.158Z,53.38
2023-03-14T13:43:29.772Z,53.64
2023-03-14T13:46:05.286Z,53.79
2023-03-14T13:48:37.676Z,53.87
2023-03-14T13:51:10.744Z,54.10
2023-03-14T13:53:47.040Z,54.33
2023-03-14T13:56:28.368Z,54.53
2023-03-14T13:59:00.080Z,54.70
2023-03-14T14:01:32.943Z,54.79
2023-03-14T14:04:11.303Z,54.92
2023-03-14T14:06:49.437Z,55.06
2023-03-14T14:09:24.932Z,55.08
2023-03-14T14:12:14.494Z,55.20
2023-03-14T14:14:50.686Z,55.38
2023-03-14T14:17:20.535Z,55.80
2023-03-14T14:19:55.370Z,56.51
2023-03-14T14:22:26.990Z,57.34
2023-03-14T14:24:58.582Z,57.96
2023-03-14T14:27:33.478Z,58.51
2023-03-14T14:30:06.337Z,58.92
2023-03-14T14:32:43.810Z,59.22
2023-03-14T14:35:24.545Z,59.56
2023-03-14T14:37:55.647Z,59.48
2023-03-14T14:40:28.306Z,59.60
2023-03-14T14:43:04.889Z,59.94
2023-03-14T14:45:37.121Z,60.19
2023-03-14T14:48:11.828Z,60.56
2023-03-14T14:50:51.945Z,61.08
2023-03-14T14:53:25.111Z,61.25
2023-03-14T14:55:57.168Z,61.85
2023-03-14T14:58:29.776Z,62.51
2023-03-14T15:00:59.582Z,60.46
2023-03-14T15:03:32.586Z,56.61
2023-03-14T15:06:03.701Z,58.48
2023-03-14T15:08:34.975Z,60.40
2023-03-14T15:11:14.169Z,61.91
2023-03-14T15:13:45.216Z,60.71
2023-03-14T15:16:18.000Z,57.87
2023-03-14T15:18:50.476Z,60.06
2023-03-14T15:21:21.224Z,61.99
2023-03-14T15:23:52.618Z,61.31
2023-03-14T15:26:24.925Z,58.21
2023-03-14T15:28:56.180Z,57.85
2023-03-14T15:31:27.175Z,60.13
2023-03-14T15:33:58.659Z,62.08
2023-03-14T15:36:32.097Z,61.09
2023-03-14T15:39:03.481Z,57.22
2023-03-14T15:41:34.864Z,58.41
2023-03-14T15:44:06.404Z,61.06
2023-03-14T15:46:38.740Z,62.40
2023-03-14T15:49:10.887Z,59.55
2023-03-14T15:51:42.284Z,57.24
2023-03-14T15:54:13.800Z,60.25
2023-03-14T15:56:45.219Z,62.28
2023-03-14T15:59:16.284Z,62.83
2023-03-14T16:01:49.421Z,57.92
2023-03-14T16:04:21.848Z,58.73
2023-03-14T16:06:52.951Z,61.77
2023-03-14T16:09:25.297Z,62.16
2023-03-14T16:11:56.551Z,58.61
2023-03-14T16:14:29.648Z,58.44
2023-03-14T16:17:01.319Z,62.15
2023-03-14T16:19:33.601Z,63.20
2023-03-14T16:22:04.740Z,61.20
2023-03-14T16:24:36.155Z,59.82
2023-03-14T16:27:08.569Z,59.80
2023-03-14T16:29:40.279Z,62.94
2023-03-14T16:32:12.707Z,61.74
2023-03-14T16:34:43.895Z,61.93
2023-03-14T16:37:15.100Z,58.72
2023-03-14T16:40:10.263Z,60.11
2023-03-14T16:45:30.312Z,63.92
2023-03-14T16:48:01.621Z,60.75
2023-03-14T16:50:33.156Z,60.25
2023-03-14T16:53:04.119Z,59.63
2023-03-14T16:55:35.225Z,62.24
2023-03-14T16:58:06.850Z,65.12
2023-03-14T17:00:40.174Z,63.34
2023-03-14T17:03:12.279Z,63.64
2023-03-14T17:05:48.413Z,62.38
2023-03-14T17:08:20.249Z,63.46
2023-03-14T17:10:51.658Z,60.09
2023-03-14T17:13:26.026Z,60.70
2023-03-14T17:15:58.477Z,61.43
2023-03-14T17:18:30.047Z,59.57
2023-03-14T17:21:01.714Z,59.59
2023-03-14T17:23:33.534Z,62.99
2023-03-14T17:26:04.736Z,63.79
2023-03-14T17:28:36.043Z,62.37
2023-03-14T17:31:08.674Z,61.79
2023-03-14T17:33:42.396Z,61.96
2023-03-14T17:36:18.587Z,62.30
2023-03-14T17:38:58.617Z,60.74
2023-03-14T17:41:31.849Z,59.29
2023-03-14T17:44:03.005Z,61.49
2023-03-14T17:46:34.195Z,64.07
2023-03-14T17:49:07.145Z,62.96
2023-03-14T17:51:38.702Z,61.54
2023-03-14T17:54:10.119Z,60.52
2023-03-14T17:56:44.163Z,58.66
2023-03-14T17:59:15.673Z,60.31
2023-03-14T18:01:46.594Z,64.31
2023-03-14T18:04:17.710Z,64.59
2023-03-14T18:06:48.805Z,61.68
2023-03-14T18:09:19.743Z,58.45
2023-03-14T18:11:58.821Z,61.64
2023-03-14T18:14:33.465Z,64.22
2023-03-14T18:17:04.548Z,60.31
2023-03-14T18:19:35.898Z,59.21
2023-03-14T18:22:07.021Z,62.68
2023-03-14T18:24:41.874Z,64.17
2023-03-14T18:27:13.021Z,62.82
2023-03-14T18:29:44.591Z,60.15
2023-03-14T18:32:15.790Z,59.47
2023-03-14T18:34:47.591Z,59.67
2023-03-14T18:37:22.482Z,62.90
2023-03-14T18:39:54.447Z,65.14
2023-03-14T18:42:25.394Z,62.51
2023-03-14T18:44:56.660Z,62.21
2023-03-14T18:47:28.703Z,60.39
2023-03-14T18:50:00.281Z,59.18
2023-03-14T18:52:31.707Z,60.28
2023-03-14T18:55:03.506Z,62.02
2023-03-14T18:57:34.597Z,66.63
2023-03-14T19:00:13.170Z,64.81
2023-03-14T19:02:48.000Z,62.21
2023-03-14T19:05:20.933Z,60.33
2023-03-14T19:07:51.882Z,58.46
2023-03-14T19:10:24.241Z,60.41
2023-03-14T19:12:59.590Z,64.27
2023-03-14T19:15:36.829Z,63.34
2023-03-14T19:18:11.985Z,61.91
2023-03-14T19:20:59.220Z,59.72
2023-03-14T19:23:37.928Z,58.78
2023-03-14T19:26:11.730Z,61.21
2023-03-14T19:28:45.165Z,65.37
2023-03-14T19:31:20.229Z,65.62
2023-03-14T19:33:51.420Z,63.30
2023-03-14T19:36:24.459Z,59.69
2023-03-14T19:38:58.210Z,58.32
2023-03-14T19:41:29.841Z,60.53
2023-03-14T19:44:01.663Z,65.04
2023-03-14T19:46:35.106Z,65.89
2023-03-14T19:49:06.496Z,64.11
2023-03-14T19:51:38.036Z,59.91
2023-03-14T19:54:10.390Z,58.78
2023-03-14T19:56:42.332Z,61.09
2023-03-14T19:59:15.652Z,65.03
2023-03-14T20:01:49.399Z,65.62
2023-03-14T20:04:23.889Z,63.53
2023-03-14T20:06:55.635Z,61.51
2023-03-14T20:09:28.916Z,60.39
2023-03-14T20:12:00.365Z,58.42
2023-03-14T20:14:31.465Z,58.38
2023-03-14T20:17:02.751Z,60.16
2023-03-14T20:19:33.702Z,62.07
2023-03-14T20:22:04.883Z,67.22
2023-03-14T20:24:43.155Z,67.48
2023-03-14T20:27:14.405Z,63.62
2023-03-14T20:29:45.674Z,62.16
2023-03-14T20:32:18.911Z,59.66
2023-03-14T20:34:49.996Z,57.76
2023-03-14T20:37:23.276Z,59.21
2023-03-14T20:40:03.615Z,61.09
2023-03-14T20:42:39.823Z,65.80
2023-03-14T20:45:16.893Z,66.34
2023-03-14T20:47:49.108Z,63.74
2023-03-14T20:50:23.448Z,61.61
2023-03-14T20:52:57.286Z,59.84
2023-03-14T20:55:28.517Z,56.81
2023-03-14T20:58:00.842Z,57.61
2023-03-14T21:00:32.310Z,58.58
2023-03-14T21:03:09.925Z,59.85
2023-03-14T21:05:44.444Z,65.77
2023-03-14T21:08:27.850Z,67.07
2023-03-14T21:11:01.220Z,64.10
2023-03-14T21:13:38.906Z,61.66
2023-03-14T21:16:10.594Z,60.08
2023-03-14T21:18:44.342Z,57.98
2023-03-14T21:21:30.934Z,57.57
2023-03-14T21:24:05.860Z,59.60
2023-03-14T21:26:36.801Z,62.68
2023-03-14T21:29:08.562Z,64.49
2023-03-14T21:31:40.554Z,60.90
2023-03-14T21:34:12.381Z,58.40
2023-03-14T21:36:44.153Z,59.37
2023-03-14T21:39:15.996Z,62.46
2023-03-14T21:41:47.260Z,64.64
2023-03-14T21:44:20.800Z,60.87
2023-03-14T21:46:52.083Z,57.76
2023-03-14T21:49:26.304Z,59.32
2023-03-14T21:51:57.177Z,62.48
2023-03-14T21:54:31.625Z,63.32
2023-03-14T21:57:02.918Z,59.72
2023-03-14T21:59:35.449Z,58.91
2023-03-14T22:02:07.658Z,61.69
2023-03-14T22:04:44.039Z,64.14
2023-03-14T22:07:18.781Z,60.95
2023-03-14T22:09:51.852Z,57.61
2023-03-14T22:12:23.146Z,59.60
2023-03-14T22:14:54.645Z,63.36
2023-03-14T22:17:28.237Z,62.27
2023-03-14T22:19:59.474Z,58.26
2023-03-14T22:22:30.331Z,58.46
2023-03-14T22:25:01.671Z,59.67
2023-03-14T22:27:32.322Z,60.44
2023-03-14T22:30:03.737Z,65.15
2023-03-14T22:32:34.829Z,65.50
2023-03-14T22:35:06.660Z,60.57
2023-03-14T22:37:38.251Z,58.52
2023-03-14T22:40:11.671Z,57.98
2023-03-14T22:42:42.851Z,60.19
2023-03-14T22:45:14.193Z,63.58
2023-03-14T22:47:45.100Z,64.27
2023-03-14T22:50:16.864Z,61.81
2023-03-14T22:52:47.798Z,59.10
2023-03-14T22:55:19.453Z,56.12
2023-03-14T22:57:52.163Z,58.80
2023-03-14T23:00:24.130Z,60.80
2023-03-14T23:02:55.138Z,63.34
2023-03-14T23:05:26.578Z,61.37
2023-03-14T23:07:58.097Z,57.97
2023-03-14T23:10:29.392Z,58.85
2023-03-14T23:13:00.317Z,62.05
2023-03-14T23:15:31.571Z,63.92
2023-03-14T23:18:02.763Z,60.80
2023-03-14T23:20:34.167Z,58.08
2023-03-14T23:23:08.690Z,60.25
2023-03-14T23:25:52.990Z,62.64
2023-03-14T23:28:24.591Z,62.34
2023-03-14T23:30:59.696Z,59.51
2023-03-14T23:33:31.834Z,57.46
2023-03-14T23:36:04.508Z,59.98
2023-03-14T23:38:36.014Z,62.59
2023-03-14T23:41:07.375Z,61.89
2023-03-14T23:43:38.828Z,57.59
2023-03-14T23:46:10.546Z,60.42
2023-03-14T23:48:47.481Z,61.51
2023-03-14T23:51:18.926Z,57.99
2023-03-14T23:53:49.844Z,59.07
2023-03-14T23:56:21.463Z,62.57
2023-03-14T23:58:52.453Z,59.20
